createdAt,value
2023-01-04T00:02:25.325Z,100542.19
2023-01-04T00:04:53.704Z,100558.38
2023-01-04T00:07:22.293Z,100529.63
2023-01-04T00:09:50.214Z,100538.75
2023-01-04T00:12:18.505Z,100511.50
2023-01-04T00:14:47.220Z,100548.91
2023-01-04T00:17:15.115Z,100485.09
2023-01-04T00:19:43.391Z,100566.34
2023-01-04T00:22:11.505Z,100576.63
2023-01-04T00:24:39.343Z,100527.94
2023-01-04T00:27:07.555Z,100520.88
2023-01-04T00:29:35.690Z,100526.06
2023-01-04T00:32:03.976Z,100577.44
2023-01-04T00:34:32.136Z,100543.31
2023-01-04T00:37:00.118Z,100581.19
2023-01-04T00:39:29.481Z,100574.31
2023-01-04T00:42:05.416Z,100528.53
2023-01-04T00:44:35.429Z,100583.94
2023-01-04T00:47:05.162Z,100518.50
2023-01-04T00:49:33.705Z,100550.63
2023-01-04T00:52:02.067Z,100596.09
2023-01-04T00:54:30.082Z,100589.44
2023-01-04T00:56:58.875Z,100546.16
2023-01-04T00:59:27.444Z,100541.00
2023-01-04T01:01:55.699Z,100595.88
2023-01-04T01:04:24.820Z,100595.88
2023-01-04T01:06:53.304Z,100601.50
2023-01-04T01:09:23.183Z,100550.00
2023-01-04T01:11:53.356Z,100596.88
2023-01-04T01:14:25.790Z,100600.38
2023-01-04T01:16:57.185Z,100601.44
2023-01-04T01:19:29.223Z,100601.56
2023-01-04T01:21:58.388Z,100597.56
2023-01-04T01:24:27.713Z,100623.56
2023-01-04T01:26:56.265Z,100541.28
2023-01-04T01:29:25.140Z,100614.09
2023-01-04T01:31:53.543Z,100605.44
2023-01-04T01:34:21.541Z,100603.63
2023-01-04T01:36:50.279Z,100609.53
2023-01-04T01:39:18.749Z,100563.44
2023-01-04T01:41:46.883Z,100603.28
2023-01-04T01:44:42.992Z,100612.03
2023-01-04T01:47:26.707Z,100595.03
2023-01-04T01:49:55.331Z,100614.09
2023-01-04T01:52:35.648Z,100597.75
2023-01-04T01:55:10.084Z,100606.44
2023-01-04T01:57:39.719Z,100603.06
2023-01-04T02:00:14.813Z,100613.53
2023-01-04T02:03:19.596Z,100604.94
2023-01-04T02:05:53.855Z,100610.19
2023-01-04T02:08:24.600Z,100611.09
2023-01-04T02:10:52.635Z,100609.41
2023-01-04T02:13:50.137Z,100606.88
2023-01-04T02:16:52.790Z,100605.28
2023-01-04T02:20:17.185Z,100601.81
2023-01-04T02:23:22.337Z,100607.03
2023-01-04T02:26:27.696Z,100615.06
2023-01-04T02:29:27.683Z,100603.00
2023-01-04T02:32:03.927Z,100534.72
2023-01-04T02:35:04.750Z,100594.66
2023-01-04T02:38:06.271Z,100599.84
2023-01-04T02:41:27.072Z,100599.03
2023-01-04T02:44:30.653Z,100564.84
2023-01-04T02:47:15.234Z,100598.34
2023-01-04T02:50:05.106Z,100591.63
2023-01-04T02:52:34.914Z,100587.13
2023-01-04T02:55:06.382Z,100459.16
2023-01-04T02:58:07.614Z,100581.91
2023-01-04T03:01:24.511Z,100586.09
2023-01-04T03:04:44.364Z,100589.66
2023-01-04T03:07:30.706Z,100586.44
2023-01-04T03:10:24.006Z,100579.50
2023-01-04T03:13:04.267Z,100585.69
2023-01-04T03:15:38.068Z,100568.69
2023-01-04T03:18:34.087Z,100580.66
2023-01-04T03:21:04.584Z,100534.66
2023-01-04T03:23:57.431Z,100533.84
2023-01-04T03:26:51.400Z,100578.50
2023-01-04T03:29:50.400Z,100541.06
2023-01-04T03:32:57.905Z,100579.44
2023-01-04T03:35:38.902Z,100511.91
2023-01-04T03:38:36.654Z,100599.00
2023-01-04T03:41:46.584Z,100598.00
2023-01-04T03:45:07.678Z,100588.25
2023-01-04T03:48:14.644Z,100578.44
2023-01-04T03:50:49.443Z,100576.75
2023-01-04T03:53:18.954Z,100575.06
2023-01-04T03:55:48.637Z,100585.63
2023-01-04T03:58:17.169Z,100576.94
2023-01-04T04:00:47.469Z,100589.75
2023-01-04T04:03:15.532Z,100570.75
2023-01-04T04:06:04.162Z,100592.50
2023-01-04T04:08:32.147Z,100591.75
2023-01-04T04:11:21.501Z,100592.69
2023-01-04T04:13:50.986Z,100505.47
2023-01-04T04:16:19.194Z,100569.72
2023-01-04T04:18:48.257Z,100568.50
2023-01-04T04:21:16.162Z,100564.38
2023-01-04T04:23:44.670Z,100581.63
2023-01-04T04:26:12.646Z,100551.50
2023-01-04T04:28:40.945Z,100565.84
2023-01-04T04:31:09.900Z,100566.47
2023-01-04T04:33:37.968Z,100586.53
2023-01-04T04:36:06.845Z,100577.88
2023-01-04T04:38:35.840Z,100586.63
2023-01-04T04:41:32.932Z,100578.16
2023-01-04T04:44:01.181Z,100586.63
2023-01-04T04:46:29.447Z,100564.97
2023-01-04T04:48:58.043Z,100563.53
2023-01-04T04:51:26.139Z,100563.75
2023-01-04T04:53:54.345Z,100562.00
2023-01-04T04:56:22.480Z,100558.53
2023-01-04T04:58:50.904Z,100521.94
2023-01-04T05:01:19.483Z,100550.97
2023-01-04T05:03:47.912Z,100553.53
2023-01-04T05:06:15.835Z,100544.19
2023-01-04T05:08:44.051Z,100536.56
2023-01-04T05:11:13.755Z,100528.75
2023-01-04T05:13:41.958Z,100527.16
2023-01-04T05:16:10.618Z,100497.16
2023-01-04T05:18:38.860Z,100551.84
2023-01-04T05:21:06.830Z,100496.22
2023-01-04T05:23:34.807Z,100559.69
2023-01-04T05:26:03.969Z,100542.22
2023-01-04T05:28:31.955Z,100536.19
2023-01-04T05:31:00.479Z,100494.72
2023-01-04T05:33:32.213Z,100495.97
2023-01-04T05:36:02.554Z,100490.97
2023-01-04T05:38:31.259Z,100540.34
2023-01-04T05:40:59.347Z,100528.91
2023-01-04T05:43:27.651Z,100531.41
2023-01-04T05:45:57.159Z,100530.69
2023-01-04T05:48:25.691Z,100534.06
2023-01-04T05:50:54.251Z,100534.78
2023-01-04T05:53:22.253Z,100531.38
2023-01-04T05:55:50.326Z,100476.00
2023-01-04T05:58:18.496Z,100532.28
2023-01-04T06:00:46.610Z,100487.91
2023-01-04T06:03:14.986Z,100533.06
2023-01-04T06:05:43.245Z,100542.75
2023-01-04T06:08:11.108Z,100514.59
2023-01-04T06:10:39.349Z,100475.06
2023-01-04T06:13:07.402Z,100515.19
2023-01-04T06:15:41.074Z,100480.06
2023-01-04T06:18:13.343Z,100492.19
2023-01-04T06:20:43.890Z,100522.09
2023-01-04T06:23:12.219Z,100523.03
2023-01-04T06:25:40.133Z,100477.00
2023-01-04T06:28:08.564Z,100532.31
2023-01-04T06:30:36.984Z,100533.59
2023-01-04T06:33:05.085Z,100535.34
2023-01-04T06:35:33.151Z,100538.56
2023-01-04T06:38:01.352Z,100544.66
2023-01-04T06:40:30.556Z,100548.00
2023-01-04T06:42:58.561Z,100536.47
2023-01-04T06:45:27.102Z,100542.16
2023-01-04T06:47:55.073Z,100510.53
2023-01-04T06:50:23.063Z,100535.06
2023-01-04T06:52:51.346Z,100489.09
2023-01-04T06:55:19.334Z,100524.94
2023-01-04T06:57:47.328Z,100533.28
2023-01-04T07:00:16.083Z,100531.63
2023-01-04T07:03:14.633Z,100521.94
2023-01-04T07:05:32.587Z,100542.41
2023-01-04T07:08:07.756Z,100528.06
2023-01-04T07:10:37.257Z,100524.44
2023-01-04T07:13:05.900Z,100529.56
2023-01-04T07:15:38.901Z,100504.03
2023-01-04T07:18:12.316Z,100528.50
2023-01-04T07:20:40.889Z,100534.22
2023-01-04T07:23:09.749Z,100521.78
2023-01-04T07:25:38.242Z,100529.44
2023-01-04T07:28:06.564Z,100525.75
2023-01-04T07:30:34.673Z,100539.44
2023-01-04T07:33:03.008Z,100541.59
2023-01-04T07:35:31.330Z,100535.44
2023-01-04T07:37:59.444Z,100537.59
2023-01-04T07:40:28.289Z,100486.00
2023-01-04T07:42:59.356Z,100501.38
2023-01-04T07:45:27.972Z,100508.06
2023-01-04T07:47:57.821Z,100515.47
2023-01-04T07:50:26.267Z,100519.34
2023-01-04T07:52:54.987Z,100526.19
2023-01-04T07:55:23.138Z,100475.59
2023-01-04T07:57:54.355Z,100520.91
2023-01-04T08:00:22.598Z,100517.38
2023-01-04T08:02:50.974Z,100517.75
2023-01-04T08:05:19.260Z,100515.84
2023-01-04T08:07:47.356Z,100474.13
2023-01-04T08:10:15.721Z,100473.97
2023-01-04T08:12:43.631Z,100519.72
2023-01-04T08:15:12.016Z,100470.13
2023-01-04T08:17:40.393Z,100506.66
2023-01-04T08:20:09.791Z,100515.94
2023-01-04T08:22:37.744Z,100516.91
2023-01-04T08:25:07.479Z,100530.38
2023-01-04T08:27:35.582Z,100531.56
2023-01-04T08:30:05.115Z,100479.25
2023-01-04T08:32:33.899Z,100480.22
2023-01-04T08:35:01.893Z,100519.06
2023-01-04T08:37:31.976Z,100519.97
2023-01-04T08:40:00.248Z,100509.47
2023-01-04T08:42:31.560Z,100518.56
2023-01-04T08:45:01.943Z,100521.16
2023-01-04T08:47:32.173Z,100456.13
2023-01-04T08:50:06.481Z,100481.06
2023-01-04T08:52:37.256Z,100489.69
2023-01-04T08:55:12.222Z,100462.94
2023-01-04T08:57:41.479Z,100425.78
2023-01-04T09:00:13.385Z,100481.00
2023-01-04T09:02:41.643Z,100415.81
2023-01-04T09:05:10.622Z,100430.13
2023-01-04T09:07:50.612Z,100408.47
2023-01-04T09:10:18.934Z,100454.94
2023-01-04T09:12:47.970Z,100460.63
2023-01-04T09:15:16.863Z,100451.91
2023-01-04T09:18:20.662Z,100440.13
2023-01-04T09:20:35.283Z,100449.00
2023-01-04T09:23:04.359Z,100436.78
2023-01-04T09:25:32.409Z,100317.50
2023-01-04T09:28:01.333Z,100436.38
2023-01-04T09:30:31.894Z,100439.44
2023-01-04T09:32:59.913Z,100417.28
2023-01-04T09:35:28.225Z,100420.84
2023-01-04T09:37:56.922Z,100382.13
2023-01-04T09:40:34.540Z,100420.47
2023-01-04T09:43:20.354Z,100418.22
2023-01-04T09:45:56.935Z,100416.91
2023-01-04T09:48:29.479Z,100384.22
2023-01-04T09:51:05.637Z,100351.53
2023-01-04T09:54:02.404Z,100338.38
2023-01-04T09:56:36.270Z,100376.22
2023-01-04T09:59:14.531Z,100348.81
2023-01-04T10:01:53.938Z,100336.53
2023-01-04T10:04:41.710Z,100308.84
2023-01-04T10:07:29.467Z,100353.66
2023-01-04T10:09:58.440Z,100320.28
2023-01-04T10:12:57.908Z,100302.94
2023-01-04T10:15:37.392Z,100335.97
2023-01-04T10:19:29.683Z,100323.41
2023-01-04T10:21:45.050Z,100314.94
2023-01-04T10:24:56.063Z,100326.78
2023-01-04T10:27:53.620Z,100314.09
2023-01-04T10:30:40.975Z,100317.53
2023-01-04T10:33:12.973Z,100309.00
2023-01-04T10:35:46.359Z,100300.94
2023-01-04T10:38:24.924Z,100284.72
2023-01-04T10:40:54.831Z,100205.75
2023-01-04T10:44:12.209Z,100270.28
2023-01-04T10:46:39.508Z,100251.63
2023-01-04T10:49:21.545Z,100263.84
2023-01-04T10:52:23.385Z,100258.22
2023-01-04T10:55:11.212Z,100252.47
2023-01-04T10:57:59.973Z,100245.63
2023-01-04T11:00:44.293Z,100220.38
2023-01-04T11:03:28.678Z,100222.06
2023-01-04T11:06:35.355Z,100212.94
2023-01-04T11:09:16.288Z,100198.13
2023-01-04T11:11:48.715Z,100187.38
2023-01-04T11:14:17.289Z,100190.06
2023-01-04T11:16:51.025Z,100173.13
2023-01-04T11:19:19.179Z,100166.97
2023-01-04T11:22:22.735Z,100151.63
2023-01-04T11:25:34.030Z,100149.34
2023-01-04T11:28:23.360Z,100128.97
2023-01-04T11:31:09.959Z,100122.72
2023-01-04T11:34:02.344Z,100065.91
2023-01-04T11:36:33.521Z,100113.09
2023-01-04T11:39:02.435Z,100095.38
2023-01-04T11:41:31.240Z,100062.69
2023-01-04T11:44:05.110Z,100104.31
2023-01-04T11:46:35.165Z,100103.91
2023-01-04T11:49:03.376Z,100095.38
2023-01-04T11:51:31.774Z,100109.75
2023-01-04T11:54:05.320Z,100106.47
2023-01-04T11:56:37.666Z,100104.06
2023-01-04T11:59:25.533Z,100059.28
2023-01-04T12:03:00.827Z,100081.75
2023-01-04T12:05:29.616Z,100087.81
2023-01-04T12:07:59.487Z,100078.63
2023-01-04T12:10:29.268Z,100016.84
2023-01-04T12:13:01.319Z,100060.84
2023-01-04T12:15:56.151Z,100052.56
2023-01-04T12:18:30.798Z,100048.13
2023-01-04T12:21:01.853Z,100005.59
2023-01-04T12:23:30.444Z,100043.22
2023-01-04T12:25:58.935Z,99993.63
2023-01-04T12:28:44.578Z,100013.25
2023-01-04T12:31:22.528Z,100006.94
2023-01-04T12:33:53.467Z,99994.19
2023-01-04T12:36:39.541Z,99988.16
2023-01-04T12:39:17.114Z,99978.88
2023-01-04T12:42:05.209Z,99974.41
2023-01-04T12:44:39.376Z,99970.09
2023-01-04T12:47:38.232Z,99973.34
2023-01-04T12:50:15.668Z,99961.75
2023-01-04T12:53:29.323Z,99960.66
2023-01-04T12:55:45.865Z,99971.50
2023-01-04T12:58:49.676Z,99965.69
2023-01-04T13:01:28.816Z,99896.72
2023-01-04T13:04:38.960Z,99926.44
2023-01-04T13:07:32.006Z,99912.72
2023-01-04T13:10:20.302Z,99901.97
2023-01-04T13:13:10.786Z,99915.06
2023-01-04T13:16:23.433Z,99889.72
2023-01-04T13:18:57.998Z,99834.63
2023-01-04T13:21:33.720Z,99872.44
2023-01-04T13:24:20.481Z,99851.50
2023-01-04T13:26:49.870Z,99854.91
2023-01-04T13:29:22.700Z,99846.88
2023-01-04T13:32:12.920Z,99790.09
2023-01-04T13:34:47.431Z,99832.63
2023-01-04T13:38:00.779Z,99819.88
2023-01-04T13:40:39.253Z,99796.22
2023-01-04T13:43:54.506Z,99766.16
2023-01-04T13:46:27.161Z,99744.72
2023-01-04T13:49:01.635Z,99779.16
2023-01-04T13:51:38.233Z,99779.97
2023-01-04T13:54:19.833Z,99728.94
2023-01-04T13:56:55.033Z,99730.84
2023-01-04T13:59:24.047Z,99773.78
2023-01-04T14:01:53.510Z,99772.81
2023-01-04T14:04:31.658Z,99765.03
2023-01-04T14:07:01.968Z,99755.34
2023-01-04T14:09:37.009Z,99722.50
2023-01-04T14:12:21.950Z,99751.94
2023-01-04T14:15:04.912Z,99740.88
2023-01-04T14:17:51.633Z,99737.81
2023-01-04T14:20:25.427Z,99741.50
2023-01-04T14:22:59.317Z,99745.84
2023-01-04T14:25:49.257Z,99743.19
2023-01-04T14:28:36.205Z,99729.66
2023-01-04T14:31:05.401Z,99731.28
2023-01-04T14:33:46.285Z,99724.19
2023-01-04T14:36:30.768Z,99697.13
2023-01-04T14:39:05.797Z,99622.06
2023-01-04T14:42:05.159Z,99651.16
2023-01-04T14:44:36.245Z,99657.69
2023-01-04T14:47:06.893Z,99638.19
2023-01-04T14:49:35.874Z,99652.13
2023-01-04T14:52:11.625Z,99681.59
2023-01-04T14:54:40.117Z,99678.22
2023-01-04T14:57:10.356Z,99678.88
2023-01-04T14:59:38.858Z,99633.13
2023-01-04T15:02:13.120Z,99673.19
2023-01-04T15:04:41.748Z,99661.41
2023-01-04T15:07:41.047Z,99641.47
2023-01-04T15:10:27.800Z,99605.13
2023-01-04T15:13:00.874Z,99628.19
2023-01-04T15:15:29.367Z,99637.59
2023-01-04T15:17:57.606Z,99625.16
2023-01-04T15:20:25.983Z,99623.44
2023-01-04T15:22:54.481Z,99601.00
2023-01-04T15:25:22.676Z,99572.34
2023-01-04T15:27:51.046Z,99610.69
2023-01-04T15:30:20.309Z,99588.78
2023-01-04T15:32:48.487Z,99529.38
2023-01-04T15:35:17.513Z,99567.69
2023-01-04T15:37:47.769Z,99564.31
2023-01-04T15:40:19.063Z,99562.63
2023-01-04T15:42:59.876Z,99559.03
2023-01-04T15:45:37.635Z,99549.75
2023-01-04T15:48:08.564Z,99405.66
2023-01-04T15:50:40.960Z,99493.13
2023-01-04T15:53:10.516Z,99498.69
2023-01-04T15:55:39.038Z,99488.16
2023-01-04T15:58:07.404Z,99498.03
2023-01-04T16:00:35.848Z,99519.69
2023-01-04T16:03:06.168Z,99509.03
2023-01-04T16:05:36.060Z,99508.34
2023-01-04T16:08:05.379Z,99508.00
2023-01-04T16:10:33.699Z,99497.69
2023-01-04T16:13:02.121Z,99474.06
2023-01-04T16:15:30.725Z,99472.06
2023-01-04T16:17:59.130Z,99471.06
2023-01-04T16:20:27.925Z,99454.88
2023-01-04T16:22:56.045Z,99453.34
2023-01-04T16:25:24.404Z,99417.75
2023-01-04T16:27:52.643Z,99450.50
2023-01-04T16:30:25.860Z,99450.31
2023-01-04T16:32:57.914Z,99391.66
2023-01-04T16:35:26.479Z,99425.84
2023-01-04T16:37:54.700Z,99438.53
2023-01-04T16:40:24.695Z,99376.28
2023-01-04T16:42:53.260Z,99403.31
2023-01-04T16:45:21.385Z,99395.53
2023-01-04T16:47:50.583Z,99391.13
2023-01-04T16:50:19.101Z,99312.72
2023-01-04T16:52:47.781Z,99368.25
2023-01-04T16:55:21.806Z,99366.66
2023-01-04T16:57:53.093Z,99360.44
2023-01-04T17:00:21.726Z,99364.25
2023-01-04T17:02:50.018Z,99345.34
2023-01-04T17:05:18.871Z,99342.47
2023-01-04T17:07:47.434Z,99295.41
2023-01-04T17:10:15.519Z,99332.88
2023-01-04T17:12:47.449Z,99321.13
2023-01-04T17:18:07.397Z,99319.81
2023-01-04T17:20:35.932Z,99314.06
2023-01-04T17:23:05.347Z,99328.09
2023-01-04T17:25:33.904Z,99285.38
2023-01-04T17:28:02.159Z,99321.97
2023-01-04T17:30:30.759Z,99253.22
2023-01-04T17:32:59.683Z,99312.72
2023-01-04T17:35:28.151Z,99304.22
2023-01-04T17:37:57.788Z,99298.09
2023-01-04T17:40:27.949Z,99294.75
2023-01-04T17:42:56.651Z,99283.44
2023-01-04T17:45:26.038Z,99265.84
2023-01-04T17:47:55.050Z,99258.84
2023-01-04T17:50:23.436Z,99275.06
2023-01-04T17:52:52.111Z,99215.97
2023-01-04T17:55:22.861Z,99208.66
2023-01-04T17:57:51.438Z,99218.94
2023-01-04T18:00:20.783Z,99240.53
2023-01-04T18:02:49.957Z,99194.84
2023-01-04T18:05:18.446Z,99215.38
2023-01-04T18:07:47.181Z,99226.75
2023-01-04T18:10:27.202Z,99162.59
2023-01-04T18:13:02.234Z,99207.91
2023-01-04T18:15:31.046Z,99198.44
2023-01-04T18:18:00.181Z,99188.47
2023-01-04T18:20:29.020Z,99182.34
2023-01-04T18:22:57.936Z,99164.59
2023-01-04T18:25:26.545Z,99150.16
2023-01-04T18:27:55.104Z,99159.78
2023-01-04T18:30:24.236Z,99156.75
2023-01-04T18:32:52.715Z,99132.06
2023-01-04T18:35:21.443Z,99129.28
2023-01-04T18:37:50.064Z,99104.47
2023-01-04T18:40:18.356Z,99120.78
2023-01-04T18:42:50.711Z,99115.38
2023-01-04T18:45:20.835Z,99108.88
2023-01-04T18:47:48.987Z,99094.50
2023-01-04T18:50:18.491Z,99055.38
2023-01-04T18:52:46.885Z,99099.84
2023-01-04T18:55:15.768Z,99098.69
2023-01-04T18:57:43.863Z,99056.53
2023-01-04T19:00:13.287Z,99096.31
2023-01-04T19:02:41.833Z,99088.41
2023-01-04T19:05:12.412Z,99040.53
2023-01-04T19:07:41.202Z,99043.91
2023-01-04T19:10:12.809Z,99071.44
2023-01-04T19:12:41.064Z,99060.66
2023-01-04T19:15:10.963Z,99064.00
2023-01-04T19:17:39.381Z,99011.81
2023-01-04T19:20:09.958Z,99052.47
2023-01-04T19:22:39.125Z,99050.94
2023-01-04T19:25:08.690Z,99041.72
2023-01-04T19:27:37.130Z,99028.41
2023-01-04T19:30:06.868Z,98985.22
2023-01-04T19:32:35.271Z,99040.00
2023-01-04T19:35:04.523Z,98991.88
2023-01-04T19:37:34.248Z,98989.97
2023-01-04T19:40:03.327Z,99034.38
2023-01-04T19:42:32.448Z,99024.13
2023-01-04T19:45:01.685Z,98987.88
2023-01-04T19:47:30.516Z,99021.75
2023-01-04T19:50:00.285Z,99012.00
2023-01-04T19:52:31.594Z,98994.66
2023-01-04T19:55:01.317Z,98929.09
2023-01-04T19:57:30.544Z,98988.03
2023-01-04T19:59:59.267Z,98993.06
2023-01-04T20:02:28.226Z,98985.44
2023-01-04T20:04:57.506Z,98988.81
2023-01-04T20:07:27.194Z,98924.88
2023-01-04T20:09:55.760Z,98963.81
2023-01-04T20:12:24.402Z,98969.66
2023-01-04T20:14:53.137Z,98967.59
2023-01-04T20:17:23.243Z,98945.91
2023-01-04T20:19:51.940Z,98944.56
2023-01-04T20:22:20.920Z,98954.63
2023-01-04T20:24:49.598Z,98915.22
2023-01-04T20:27:18.415Z,98940.75
2023-01-04T20:29:48.029Z,98933.53
2023-01-04T20:32:17.563Z,98920.31
2023-01-04T20:34:45.841Z,98895.09
2023-01-04T20:37:14.339Z,98909.63
2023-01-04T20:39:43.142Z,98914.66
2023-01-04T20:42:30.931Z,98916.91
2023-01-04T20:45:02.365Z,98889.78
2023-01-04T20:47:31.723Z,98900.50
2023-01-04T20:50:00.637Z,98898.84
2023-01-04T20:52:29.086Z,98891.75
2023-01-04T20:54:57.648Z,98881.34
2023-01-04T20:57:26.467Z,98879.25
2023-01-04T20:59:56.101Z,98882.16
2023-01-04T21:02:25.158Z,98875.06
2023-01-04T21:04:55.988Z,98853.16
2023-01-04T21:07:25.881Z,98875.56
2023-01-04T21:09:54.563Z,98846.44
2023-01-04T21:12:22.798Z,98872.75
2023-01-04T21:14:51.729Z,98838.22
2023-01-04T21:17:20.164Z,98864.28
2023-01-04T21:19:50.631Z,98856.38
2023-01-04T21:22:19.509Z,98845.38
2023-01-04T21:24:47.652Z,98859.00
2023-01-04T21:27:16.534Z,98852.34
2023-01-04T21:29:45.261Z,98838.81
2023-01-04T21:32:13.607Z,98846.38
2023-01-04T21:34:41.853Z,98824.25
2023-01-04T21:37:11.807Z,98837.47
2023-01-04T21:39:40.033Z,98830.25
2023-01-04T21:42:10.815Z,98809.56
2023-01-04T21:44:39.337Z,98791.72
2023-01-04T21:47:07.688Z,98745.38
2023-01-04T21:49:37.013Z,98806.25
2023-01-04T21:52:05.631Z,98770.88
2023-01-04T21:54:34.106Z,98812.78
2023-01-04T21:57:02.580Z,98802.91
2023-01-04T21:59:31.560Z,98762.81
2023-01-04T22:02:00.341Z,98793.34
2023-01-04T22:04:28.900Z,98787.38
2023-01-04T22:06:57.955Z,98743.81
2023-01-04T22:09:27.079Z,98778.06
2023-01-04T22:11:55.526Z,98764.84
2023-01-04T22:14:24.810Z,98773.78
2023-01-04T22:16:53.220Z,98750.94
2023-01-04T22:19:22.816Z,98749.00
2023-01-04T22:21:51.345Z,98699.06
2023-01-04T22:24:20.397Z,98731.50
2023-01-04T22:26:50.823Z,98693.22
2023-01-04T22:29:20.860Z,98745.97
2023-01-04T22:31:49.945Z,98738.63
2023-01-04T22:34:18.757Z,98705.50
2023-01-04T22:36:47.485Z,98731.69
2023-01-04T22:39:15.626Z,98678.38
2023-01-04T22:41:44.533Z,98681.44
2023-01-04T22:44:13.285Z,98706.78
2023-01-04T22:46:41.642Z,98695.91
2023-01-04T22:49:10.593Z,98706.22
2023-01-04T22:51:41.687Z,98706.78
2023-01-04T22:54:11.167Z,98710.94
2023-01-04T22:56:39.615Z,98711.50
2023-01-04T22:59:10.176Z,98701.63
2023-01-04T23:01:38.888Z,98704.81
2023-01-04T23:04:07.274Z,98683.66
2023-01-04T23:06:37.791Z,98689.78
2023-01-04T23:09:08.039Z,98670.34
2023-01-04T23:11:37.709Z,98665.06
2023-01-04T23:14:08.919Z,98668.81
2023-01-04T23:16:37.722Z,98661.72
2023-01-04T23:19:09.289Z,98656.44
2023-01-04T23:21:38.130Z,98670.91
2023-01-04T23:24:07.206Z,98659.91
2023-01-04T23:26:35.837Z,98666.19
2023-01-04T23:29:04.456Z,98665.03
2023-01-04T23:31:34.175Z,98616.38
2023-01-04T23:34:05.413Z,98663.53
2023-01-04T23:36:38.149Z,98628.63
2023-01-04T23:39:15.081Z,98658.38
2023-01-04T23:41:47.686Z,98603.31
2023-01-04T23:44:34.125Z,98634.59
2023-01-04T23:49:38.192Z,98617.91
2023-01-04T23:52:07.685Z,98619.28
2023-01-04T23:54:36.236Z,98608.59
2023-01-04T23:57:04.936Z,98598.03
2023-01-04T23:59:33.668Z,98592.44
